Time,TemperatureF,DewpointF,PressureIn,WindDirection,WindDirectionDegrees,WindSpeedMPH,WindSpeedGustMPH,Humidity,HourlyPrecipIn,Conditions,Clouds,dailyrainin,SoftwareType,DateUTC
2013-04-16 00:01:00,42.0,40.0,29.76,South,191,10.0,24.0,92,0.00,,,0.01,,2013-04-16 07:01:00,
2013-04-16 00:11:00,42.0,40.0,29.76,South,191,10.0,24.0,92,0.00,,,0.01,,2013-04-16 07:11:00,
2013-04-16 00:21:00,42.0,40.0,29.76,SW,231,12.0,20.0,91,0.00,,,0.01,,2013-04-16 07:21:00,
2013-04-16 00:31:00,41.0,38.0,29.74,SW,229,15.0,24.0,90,0.00,,,0.01,,2013-04-16 07:31:00,
2013-04-16 00:41:00,41.0,38.0,29.74,SW,229,15.0,24.0,90,0.00,,,0.01,,2013-04-16 07:41:00,
2013-04-16 00:53:00,41.0,36.0,29.75,SW,228,11.0,20.0,82,0.00,,,0.01,,2013-04-16 07:53:00,
2013-04-16 01:01:00,41.0,36.0,29.75,WSW,252,10.0,17.0,81,0.00,,,0.01,,2013-04-16 08:01:00,
2013-04-16 01:11:00,41.0,36.0,29.75,WSW,252,10.0,17.0,81,0.00,,,0.01,,2013-04-16 08:11:00,
2013-04-16 01:21:00,41.0,35.0,29.75,WSW,241,9.0,16.0,79,0.00,,,0.01,,2013-04-16 08:21:00,
2013-04-16 01:31:00,41.0,35.0,29.75,West,269,11.0,19.0,78,0.00,,,0.01,,2013-04-16 08:31:00,
2013-04-16 01:41:00,41.0,35.0,29.75,West,269,11.0,19.0,78,0.00,,,0.01,,2013-04-16 08:41:00,
2013-04-16 01:52:00,41.0,34.0,29.75,WSW,240,12.0,18.0,76,0.00,,,0.01,,2013-04-16 08:52:00,
2013-04-16 02:01:00,41.0,34.0,29.74,WSW,247,12.0,15.0,75,0.00,,,0.01,,2013-04-16 09:01:00,
2013-04-16 02:11:00,41.0,34.0,29.74,WSW,247,12.0,15.0,75,0.00,,,0.01,,2013-04-16 09:11:00,
2013-04-16 02:21:00,41.0,34.0,29.74,WSW,254,7.0,13.0,75,0.00,,,0.01,,2013-04-16 09:21:00,
2013-04-16 02:32:00,39.0,27.0,29.76,West,269,13.0,19.0,62,0.00,,,0.01,,2013-04-16 09:32:00,
2013-04-16 02:42:00,39.0,27.0,29.76,West,269,13.0,19.0,62,0.00,,,0.01,,2013-04-16 09:42:00,
2013-04-16 02:52:00,37.0,22.0,29.77,WSW,254,11.0,22.0,54,0.00,,,0.01,,2013-04-16 09:52:00,
2013-04-16 03:02:00,37.0,22.0,29.76,West,281,17.0,25.0,55,0.00,,,0.01,,2013-04-16 10:02:00,
2013-04-16 03:12:00,37.0,22.0,29.76,West,281,17.0,25.0,55,0.00,,,0.01,,2013-04-16 10:12:00,
2013-04-16 03:22:00,36.0,22.0,29.76,WNW,292,16.0,25.0,57,0.00,,,0.01,,2013-04-16 10:22:00,
2013-04-16 03:32:00,36.0,23.0,29.77,West,261,15.0,24.0,59,0.00,,,0.01,,2013-04-16 10:32:00,
2013-04-16 03:42:00,36.0,23.0,29.77,West,261,15.0,24.0,59,0.00,,,0.01,,2013-04-16 10:42:00,
2013-04-16 03:52:00,36.0,23.0,29.77,West,265,18.0,23.0,60,0.00,,,0.01,,2013-04-16 10:52:00,
2013-04-16 04:02:00,36.0,25.0,29.77,NW,322,17.0,24.0,64,0.00,,,0.01,,2013-04-16 11:02:00,
2013-04-16 04:12:00,36.0,25.0,29.77,NW,322,17.0,24.0,64,0.00,,,0.01,,2013-04-16 11:12:00,
2013-04-16 04:21:00,36.0,24.0,29.77,WNW,287,16.0,28.0,62,0.00,,,0.01,,2013-04-16 11:21:00,
2013-04-16 04:31:00,36.0,23.0,29.77,West,269,13.0,25.0,59,0.00,,,0.01,,2013-04-16 11:31:00,
2013-04-16 04:41:00,36.0,23.0,29.77,West,269,13.0,25.0,59,0.00,,,0.01,,2013-04-16 11:41:00,
2013-04-16 04:52:00,36.0,23.0,29.77,West,277,14.0,22.0,60,0.00,,,0.01,,2013-04-16 11:52:00,
2013-04-16 05:01:00,35.0,23.0,29.79,West,265,11.0,20.0,61,0.00,,,0.01,,2013-04-16 12:01:00,
2013-04-16 05:11:00,35.0,23.0,29.79,West,265,11.0,20.0,61,0.00,,,0.01,,2013-04-16 12:11:00,
2013-04-16 05:21:00,36.0,24.0,29.79,West,267,17.0,30.0,61,0.00,,,0.01,,2013-04-16 12:21:00,
2013-04-16 05:31:00,35.0,23.0,29.80,WNW,293,13.0,23.0,62,0.00,,,0.01,,2013-04-16 12:31:00,
2013-04-16 05:41:00,35.0,23.0,29.80,WNW,293,13.0,23.0,62,0.00,,,0.01,,2013-04-16 12:41:00,
2013-04-16 05:52:00,34.0,22.0,29.81,WNW,300,13.0,23.0,62,0.00,,,0.01,,2013-04-16 12:52:00,
2013-04-16 06:01:00,34.0,22.0,29.81,WNW,287,11.0,21.0,62,0.00,,,0.01,,2013-04-16 13:01:00,
2013-04-16 06:11:00,34.0,22.0,29.81,WNW,287,11.0,21.0,62,0.00,,,0.01,,2013-04-16 13:11:00,
2013-04-16 06:22:00,34.0,23.0,29.81,WSW,240,11.0,19.0,63,0.00,,,0.01,,2013-04-16 13:22:00,
2013-04-16 06:31:00,35.0,23.0,29.81,WSW,246,11.0,26.0,61,0.00,,,0.01,,2013-04-16 13:31:00,
2013-04-16 06:42:00,35.0,23.0,29.81,WSW,246,11.0,26.0,61,0.00,,,0.01,,2013-04-16 13:42:00,
2013-04-16 06:52:00,36.0,25.0,29.82,West,281,18.0,36.0,63,0.00,,,0.01,,2013-04-16 13:52:00,
2013-04-16 07:02:00,35.0,23.0,29.83,WNW,290,5.0,16.0,62,0.00,,,0.01,,2013-04-16 14:02:00,
2013-04-16 07:11:00,35.0,23.0,29.83,WNW,290,5.0,16.0,62,0.00,,,0.01,,2013-04-16 14:11:00,
2013-04-16 07:22:00,35.0,24.0,29.84,NW,315,2.0,11.0,64,0.00,,,0.01,,2013-04-16 14:22:00,
2013-04-16 07:32:00,35.0,24.0,29.83,WNW,289,2.0,12.0,64,0.00,,,0.01,,2013-04-16 14:32:00,
2013-04-16 07:41:00,35.0,24.0,29.83,WNW,289,2.0,12.0,64,0.00,,,0.01,,2013-04-16 14:41:00,
2013-04-16 07:52:00,36.0,25.0,29.85,WNW,302,7.0,13.0,64,0.00,,,0.01,,2013-04-16 14:52:00,
2013-04-16 08:01:00,37.0,26.0,29.85,WNW,295,12.0,20.0,65,0.00,,,0.01,,2013-04-16 15:01:00,
2013-04-16 08:11:00,37.0,26.0,29.85,WNW,295,12.0,20.0,65,0.00,,,0.01,,2013-04-16 15:11:00,
2013-04-16 08:21:00,38.0,27.0,29.85,WSW,254,16.0,21.0,63,0.00,,,0.01,,2013-04-16 15:21:00,
2013-04-16 08:32:00,38.0,27.0,29.85,West,263,12.0,21.0,63,0.00,,,0.01,,2013-04-16 15:32:00,
2013-04-16 08:43:00,38.0,27.0,29.85,West,263,12.0,21.0,63,0.00,,,0.01,,2013-04-16 15:43:00,
2013-04-16 08:53:00,40.0,28.0,29.86,NW,308,14.0,19.0,62,0.00,,,0.01,,2013-04-16 15:53:00,
2013-04-16 09:03:00,40.0,28.0,29.85,West,279,10.0,17.0,61,0.00,,,0.01,,2013-04-16 16:03:00,
2013-04-16 09:12:00,40.0,28.0,29.85,West,279,10.0,17.0,61,0.00,,,0.01,,2013-04-16 16:12:00,
2013-04-16 09:22:00,41.0,29.0,29.86,WNW,299,7.0,17.0,61,0.00,,,0.01,,2013-04-16 16:22:00,
2013-04-16 09:32:00,42.0,28.0,29.86,NNW,329,9.0,19.0,57,0.00,,,0.01,,2013-04-16 16:32:00,
2013-04-16 09:42:00,42.0,28.0,29.86,NNW,329,9.0,19.0,57,0.00,,,0.01,,2013-04-16 16:42:00,
2013-04-16 09:52:00,41.0,27.0,29.87,NW,317,11.0,18.0,58,0.00,,,0.01,,2013-04-16 16:52:00,
2013-04-16 10:02:00,42.0,28.0,29.87,West,272,11.0,20.0,58,0.00,,,0.01,,2013-04-16 17:02:00,
2013-04-16 10:11:00,42.0,28.0,29.87,West,272,11.0,20.0,58,0.00,,,0.01,,2013-04-16 17:11:00,
2013-04-16 10:22:00,42.0,27.0,29.87,WNW,302,13.0,25.0,56,0.00,,,0.01,,2013-04-16 17:22:00,
2013-04-16 10:32:00,43.0,28.0,29.87,WSW,253,11.0,20.0,56,0.00,,,0.01,,2013-04-16 17:32:00,
2013-04-16 10:43:00,43.0,28.0,29.87,WSW,253,11.0,20.0,56,0.00,,,0.01,,2013-04-16 17:43:00,
2013-04-16 10:53:00,42.0,27.0,29.88,WNW,283,16.0,24.0,54,0.00,,,0.01,,2013-04-16 17:53:00,
2013-04-16 11:01:00,43.0,28.0,29.88,West,276,12.0,26.0,56,0.00,,,0.01,,2013-04-16 18:01:00,
2013-04-16 11:11:00,43.0,27.0,29.88,WNW,295,14.0,22.0,53,0.00,,,0.01,,2013-04-16 18:11:00,
2013-04-16 11:22:00,43.0,27.0,29.88,WNW,295,14.0,22.0,53,0.00,,,0.01,,2013-04-16 18:22:00,
2013-04-16 11:32:00,43.0,27.0,29.89,NW,304,17.0,25.0,53,0.00,,,0.01,,2013-04-16 18:32:00,
2013-04-16 11:42:00,43.0,27.0,29.89,NW,304,17.0,25.0,53,0.00,,,0.01,,2013-04-16 18:42:00,
2013-04-16 11:52:00,44.0,27.0,29.89,WNW,303,15.0,22.0,51,0.00,,,0.01,,2013-04-16 18:52:00,
2013-04-16 12:01:00,44.0,27.0,29.89,North,360,11.0,24.0,51,0.00,,,0.01,,2013-04-16 19:01:00,
2013-04-16 12:12:00,44.0,27.0,29.89,North,360,11.0,24.0,51,0.00,,,0.01,,2013-04-16 19:12:00,
2013-04-16 12:21:00,44.0,27.0,29.88,NW,304,11.0,19.0,50,0.00,,,0.01,,2013-04-16 19:21:00,
2013-04-16 12:31:00,45.0,26.0,29.88,WNW,286,12.0,18.0,47,0.00,,,0.01,,2013-04-16 19:31:00,
2013-04-16 12:41:00,45.0,26.0,29.88,WNW,286,12.0,18.0,47,0.00,,,0.01,,2013-04-16 19:41:00,
2013-04-16 12:52:00,45.0,25.0,29.88,WNW,299,17.0,24.0,45,0.00,,,0.01,,2013-04-16 19:52:00,
2013-04-16 13:01:00,45.0,25.0,29.87,WSW,242,19.0,30.0,45,0.00,,,0.01,,2013-04-16 20:01:00,
2013-04-16 13:11:00,45.0,25.0,29.87,WSW,242,19.0,30.0,45,0.00,,,0.01,,2013-04-16 20:11:00,
2013-04-16 13:22:00,46.0,26.0,29.87,WNW,302,18.0,28.0,45,0.00,,,0.01,,2013-04-16 20:22:00,
2013-04-16 13:31:00,46.0,26.0,29.86,WNW,284,17.0,33.0,46,0.00,,,0.01,,2013-04-16 20:31:00,
2013-04-16 13:42:00,46.0,26.0,29.86,WNW,284,17.0,33.0,46,0.00,,,0.01,,2013-04-16 20:42:00,
2013-04-16 13:52:00,46.0,27.0,29.87,WNW,298,18.0,30.0,47,0.00,,,0.01,,2013-04-16 20:52:00,
2013-04-16 14:01:00,47.0,28.0,29.87,NW,318,18.0,27.0,47,0.00,,,0.01,,2013-04-16 21:01:00,
2013-04-16 14:11:00,47.0,28.0,29.87,NW,318,18.0,27.0,47,0.00,,,0.01,,2013-04-16 21:11:00,
2013-04-16 14:21:00,46.0,26.0,29.86,WNW,302,24.0,34.0,46,0.00,,,0.01,,2013-04-16 21:21:00,
2013-04-16 14:32:00,47.0,27.0,29.88,WNW,300,18.0,32.0,46,0.00,,,0.01,,2013-04-16 21:32:00,
2013-04-16 14:42:00,47.0,27.0,29.88,WNW,300,18.0,32.0,46,0.00,,,0.01,,2013-04-16 21:42:00,
2013-04-16 14:53:00,48.0,27.0,29.88,WNW,284,18.0,30.0,43,0.00,,,0.01,,2013-04-16 21:53:00,
2013-04-16 15:02:00,47.0,27.0,29.87,NW,311,25.0,39.0,45,0.00,,,0.01,,2013-04-16 22:02:00,
2013-04-16 15:12:00,47.0,27.0,29.87,NW,311,25.0,39.0,45,0.00,,,0.01,,2013-04-16 22:12:00,
2013-04-16 15:22:00,48.0,25.0,29.87,West,275,24.0,37.0,40,0.00,,,0.01,,2013-04-16 22:22:00,
2013-04-16 15:32:00,48.0,26.0,29.87,WNW,296,19.0,34.0,42,0.00,,,0.01,,2013-04-16 22:32:00,
2013-04-16 15:42:00,48.0,26.0,29.87,WNW,296,19.0,34.0,42,0.00,,,0.01,,2013-04-16 22:42:00,
2013-04-16 15:52:00,49.0,25.0,29.87,NW,311,20.0,36.0,39,0.00,,,0.01,,2013-04-16 22:52:00,
2013-04-16 16:02:00,49.0,25.0,29.88,WNW,288,23.0,31.0,39,0.00,,,0.01,,2013-04-16 23:02:00,
2013-04-16 16:11:00,49.0,25.0,29.88,WNW,288,23.0,31.0,39,0.00,,,0.01,,2013-04-16 23:11:00,
2013-04-16 16:21:00,49.0,24.0,29.88,WNW,298,22.0,31.0,37,0.00,,,0.01,,2013-04-16 23:21:00,
2013-04-16 16:31:00,47.0,25.0,29.89,NW,313,10.0,28.0,41,0.00,,,0.01,,2013-04-16 23:31:00,
2013-04-16 16:42:00,47.0,25.0,29.89,NW,313,10.0,28.0,41,0.00,,,0.01,,2013-04-16 23:42:00,
2013-04-16 16:52:00,49.0,23.0,29.89,NW,325,15.0,24.0,35,0.00,,,0.01,,2013-04-16 23:52:00,
2013-04-16 17:01:00,50.0,23.0,29.88,WNW,286,17.0,26.0,34,0.00,,,0.01,,2013-04-17 00:01:00,
2013-04-16 17:11:00,50.0,23.0,29.88,WNW,286,17.0,26.0,34,0.00,,,0.01,,2013-04-17 00:11:00,
2013-04-16 17:22:00,50.0,23.0,29.88,NW,310,17.0,31.0,34,0.00,,,0.01,,2013-04-17 00:22:00,
2013-04-16 17:32:00,49.0,20.0,29.89,NW,306,27.0,33.0,32,0.00,,,0.01,,2013-04-17 00:32:00,
2013-04-16 17:42:00,49.0,20.0,29.89,NW,306,27.0,33.0,32,0.00,,,0.01,,2013-04-17 00:42:00,
2013-04-16 17:52:00,49.0,23.0,29.89,NW,306,16.0,27.0,35,0.00,,,0.01,,2013-04-17 00:52:00,
2013-04-16 18:01:00,49.0,20.0,29.89,NW,316,12.0,29.0,32,0.00,,,0.01,,2013-04-17 01:01:00,
2013-04-16 18:11:00,49.0,20.0,29.89,NW,316,12.0,29.0,32,0.00,,,0.01,,2013-04-17 01:11:00,
2013-04-16 18:21:00,49.0,18.0,29.88,NW,320,17.0,30.0,29,0.00,,,0.01,,2013-04-17 01:21:00,
2013-04-16 18:32:00,49.0,18.0,29.88,West,273,15.0,22.0,29,0.00,,,0.01,,2013-04-17 01:32:00,
2013-04-16 18:41:00,49.0,18.0,29.88,West,273,15.0,22.0,29,0.00,,,0.01,,2013-04-17 01:41:00,
2013-04-16 18:52:00,49.0,20.0,29.88,NW,319,13.0,25.0,31,0.00,,,0.01,,2013-04-17 01:52:00,
2013-04-16 19:01:00,48.0,21.0,29.89,WSW,252,9.0,17.0,34,0.00,,,0.01,,2013-04-17 02:01:00,
2013-04-16 19:11:00,48.0,21.0,29.89,WSW,252,9.0,17.0,34,0.00,,,0.01,,2013-04-17 02:11:00,
2013-04-16 19:21:00,47.0,21.0,29.89,NW,306,15.0,22.0,35,0.00,,,0.01,,2013-04-17 02:21:00,
2013-04-16 19:31:00,46.0,21.0,29.89,West,276,13.0,24.0,36,0.00,,,0.01,,2013-04-17 02:31:00,
2013-04-16 19:42:00,46.0,21.0,29.89,West,276,13.0,24.0,36,0.00,,,0.01,,2013-04-17 02:42:00,
2013-04-16 19:52:00,46.0,21.0,29.89,WNW,288,14.0,23.0,37,0.00,,,0.01,,2013-04-17 02:52:00,
2013-04-16 20:02:00,46.0,19.0,29.89,NW,309,16.0,24.0,34,0.00,,,0.01,,2013-04-17 03:02:00,
2013-04-16 20:12:00,46.0,19.0,29.89,NW,309,16.0,24.0,34,0.00,,,0.01,,2013-04-17 03:12:00,
2013-04-16 20:21:00,45.0,21.0,29.90,NW,318,11.0,22.0,38,0.00,,,0.01,,2013-04-17 03:21:00,
2013-04-16 20:32:00,45.0,20.0,29.89,WNW,301,13.0,20.0,36,0.00,,,0.01,,2013-04-17 03:32:00,
2013-04-16 20:42:00,45.0,20.0,29.89,WNW,301,13.0,20.0,36,0.00,,,0.01,,2013-04-17 03:42:00,
2013-04-16 20:53:00,45.0,20.0,29.89,WNW,303,12.0,19.0,37,0.00,,,0.01,,2013-04-17 03:53:00,
2013-04-16 21:02:00,45.0,20.0,29.90,WNW,286,13.0,20.0,37,0.00,,,0.00,,2013-04-17 04:02:00,
2013-04-16 21:12:00,45.0,20.0,29.90,WNW,286,13.0,20.0,37,0.00,,,0.00,,2013-04-17 04:12:00,
2013-04-16 21:22:00,45.0,20.0,29.90,WNW,301,10.0,19.0,37,0.00,,,0.00,,2013-04-17 04:22:00,
2013-04-16 21:32:00,44.0,19.0,29.92,WNW,300,10.0,13.0,37,0.00,,,0.00,,2013-04-17 04:32:00,
2013-04-16 21:42:00,44.0,19.0,29.92,WNW,300,10.0,13.0,37,0.00,,,0.00,,2013-04-17 04:42:00,
2013-04-16 21:52:00,44.0,18.0,29.92,NW,306,10.0,15.0,35,0.00,,,0.00,,2013-04-17 04:52:00,
2013-04-16 22:02:00,44.0,18.0,29.93,WNW,301,10.0,17.0,35,0.00,,,0.00,,2013-04-17 05:02:00,
2013-04-16 22:12:00,44.0,18.0,29.93,WNW,301,10.0,17.0,35,0.00,,,0.00,,2013-04-17 05:12:00,
2013-04-16 22:22:00,44.0,18.0,29.93,WNW,298,10.0,20.0,35,0.00,,,0.00,,2013-04-17 05:22:00,
2013-04-16 22:32:00,44.0,19.0,29.93,NW,309,11.0,16.0,37,0.00,,,0.00,,2013-04-17 05:32:00,
2013-04-16 22:42:00,44.0,19.0,29.93,NW,309,11.0,16.0,37,0.00,,,0.00,,2013-04-17 05:42:00,
2013-04-16 22:52:00,44.0,19.0,29.93,West,271,14.0,23.0,36,0.00,,,0.00,,2013-04-17 05:52:00,
2013-04-16 23:01:00,44.0,19.0,29.93,WNW,299,10.0,20.0,37,0.00,,,0.00,,2013-04-17 06:01:00,
2013-04-16 23:11:00,44.0,19.0,29.93,WNW,299,10.0,20.0,37,0.00,,,0.00,,2013-04-17 06:11:00,
2013-04-16 23:22:00,43.0,19.0,29.93,WNW,286,8.0,21.0,38,0.00,,,0.00,,2013-04-17 06:22:00,
2013-04-16 23:31:00,43.0,21.0,29.93,WNW,293,4.0,14.0,41,0.00,,,0.00,,2013-04-17 06:31:00,
2013-04-16 23:42:00,43.0,21.0,29.93,WNW,293,4.0,14.0,41,0.00,,,0.00,,2013-04-17 06:42:00,
2013-04-16 23:52:00,43.0,22.0,29.93,NNW,337,7.0,14.0,42,0.00,,,0.00,,2013-04-17 06:52:00,